sensor_id;sensor_type;location;lat;lon;timestamp;P1;durP1;ratioP1;P2;durP2;ratioP2
57635;SDS011;43465;50.728;4.160;2023-01-16T00:01:20;1.85;;;0.82;;
57635;SDS011;43465;50.728;4.160;2023-01-16T00:03:47;3.42;;;0.90;;
57635;SDS011;43465;50.728;4.160;2023-01-16T00:06:12;3.70;;;1.05;;
57635;SDS011;43465;50.728;4.160;2023-01-16T00:08:38;3.33;;;0.80;;
57635;SDS011;43465;50.728;4.160;2023-01-16T00:11:05;4.75;;;0.85;;
57635;SDS011;43465;50.728;4.160;2023-01-16T00:13:31;2.70;;;0.73;;
57635;SDS011;43465;50.728;4.160;2023-01-16T00:15:56;4.50;;;1.10;;
57635;SDS011;43465;50.728;4.160;2023-01-16T00:18:22;3.47;;;0.93;;
57635;SDS011;43465;50.728;4.160;2023-01-16T00:20:47;4.20;;;1.50;;
57635;SDS011;43465;50.728;4.160;2023-01-16T00:23:15;2.70;;;1.30;;
57635;SDS011;43465;50.728;4.160;2023-01-16T00:25:41;6.03;;;2.08;;
57635;SDS011;43465;50.728;4.160;2023-01-16T00:28:08;9.43;;;2.95;;
57635;SDS011;43465;50.728;4.160;2023-01-16T00:30:35;6.75;;;2.22;;
57635;SDS011;43465;50.728;4.160;2023-01-16T00:33:01;5.55;;;2.10;;
57635;SDS011;43465;50.728;4.160;2023-01-16T00:35:27;6.93;;;1.88;;
57635;SDS011;43465;50.728;4.160;2023-01-16T00:37:53;4.38;;;1.38;;
57635;SDS011;43465;50.728;4.160;2023-01-16T00:40:19;6.35;;;1.23;;
57635;SDS011;43465;50.728;4.160;2023-01-16T00:42:44;3.80;;;1.13;;
57635;SDS011;43465;50.728;4.160;2023-01-16T00:45:10;3.05;;;0.95;;
57635;SDS011;43465;50.728;4.160;2023-01-16T00:47:36;2.85;;;0.93;;
57635;SDS011;43465;50.728;4.160;2023-01-16T00:50:02;3.80;;;1.13;;
57635;SDS011;43465;50.728;4.160;2023-01-16T00:52:28;4.75;;;1.10;;
57635;SDS011;43465;50.728;4.160;2023-01-16T00:54:54;6.25;;;1.40;;
57635;SDS011;43465;50.728;4.160;2023-01-16T00:57:20;6.85;;;1.85;;
57635;SDS011;43465;50.728;4.160;2023-01-16T00:59:45;5.82;;;1.67;;
57635;SDS011;43465;50.728;4.160;2023-01-16T01:02:11;6.25;;;1.98;;
57635;SDS011;43465;50.728;4.160;2023-01-16T01:04:37;5.82;;;1.58;;
57635;SDS011;43465;50.728;4.160;2023-01-16T01:07:02;5.32;;;1.50;;
57635;SDS011;43465;50.728;4.160;2023-01-16T01:09:28;6.70;;;1.70;;
57635;SDS011;43465;50.728;4.160;2023-01-16T01:11:55;4.53;;;1.80;;
57635;SDS011;43465;50.728;4.160;2023-01-16T01:14:22;6.72;;;2.03;;
57635;SDS011;43465;50.728;4.160;2023-01-16T01:16:48;7.10;;;2.20;;
57635;SDS011;43465;50.728;4.160;2023-01-16T01:19:13;11.02;;;2.30;;
57635;SDS011;43465;50.728;4.160;2023-01-16T01:21:39;8.05;;;2.25;;
57635;SDS011;43465;50.728;4.160;2023-01-16T01:24:05;10.07;;;2.47;;
57635;SDS011;43465;50.728;4.160;2023-01-16T01:26:31;9.40;;;2.20;;
57635;SDS011;43465;50.728;4.160;2023-01-16T01:28:56;12.05;;;2.45;;
57635;SDS011;43465;50.728;4.160;2023-01-16T01:31:22;8.82;;;2.22;;
57635;SDS011;43465;50.728;4.160;2023-01-16T01:33:48;8.68;;;2.25;;
57635;SDS011;43465;50.728;4.160;2023-01-16T01:36:13;9.25;;;2.25;;
57635;SDS011;43465;50.728;4.160;2023-01-16T01:38:39;9.52;;;2.47;;
57635;SDS011;43465;50.728;4.160;2023-01-16T01:41:05;9.80;;;3.03;;
57635;SDS011;43465;50.728;4.160;2023-01-16T01:43:41;11.77;;;2.50;;
57635;SDS011;43465;50.728;4.160;2023-01-16T01:46:25;9.82;;;2.40;;
57635;SDS011;43465;50.728;4.160;2023-01-16T01:49:03;9.25;;;3.17;;
57635;SDS011;43465;50.728;4.160;2023-01-16T01:51:34;11.32;;;2.47;;
57635;SDS011;43465;50.728;4.160;2023-01-16T01:54:07;6.38;;;2.22;;
57635;SDS011;43465;50.728;4.160;2023-01-16T01:56:38;9.15;;;1.98;;
57635;SDS011;43465;50.728;4.160;2023-01-16T01:59:11;10.35;;;2.35;;
57635;SDS011;43465;50.728;4.160;2023-01-16T02:01:42;7.07;;;2.00;;
57635;SDS011;43465;50.728;4.160;2023-01-16T02:04:18;9.60;;;2.20;;
57635;SDS011;43465;50.728;4.160;2023-01-16T02:06:49;7.20;;;1.90;;
57635;SDS011;43465;50.728;4.160;2023-01-16T02:09:18;11.07;;;2.17;;
57635;SDS011;43465;50.728;4.160;2023-01-16T02:11:48;5.75;;;2.08;;
57635;SDS011;43465;50.728;4.160;2023-01-16T02:14:27;9.15;;;1.73;;
57635;SDS011;43465;50.728;4.160;2023-01-16T02:16:56;6.57;;;2.17;;
57635;SDS011;43465;50.728;4.160;2023-01-16T02:20:32;6.20;;;2.08;;
57635;SDS011;43465;50.728;4.160;2023-01-16T02:31:01;6.88;;;1.50;;
57635;SDS011;43465;50.728;4.160;2023-01-16T02:36:27;8.40;;;1.88;;
57635;SDS011;43465;50.728;4.160;2023-01-16T02:53:22;9.45;;;1.50;;
57635;SDS011;43465;50.728;4.160;2023-01-16T02:55:55;9.00;;;1.85;;
57635;SDS011;43465;50.728;4.160;2023-01-16T02:58:27;5.55;;;1.65;;
57635;SDS011;43465;50.728;4.160;2023-01-16T03:00:56;6.47;;;1.35;;
57635;SDS011;43465;50.728;4.160;2023-01-16T03:03:34;7.30;;;1.50;;
57635;SDS011;43465;50.728;4.160;2023-01-16T03:06:15;4.78;;;1.58;;
57635;SDS011;43465;50.728;4.160;2023-01-16T03:11:19;6.10;;;1.33;;
57635;SDS011;43465;50.728;4.160;2023-01-16T03:16:26;6.65;;;1.48;;
57635;SDS011;43465;50.728;4.160;2023-01-16T03:19:04;7.38;;;1.70;;
57635;SDS011;43465;50.728;4.160;2023-01-16T03:21:35;3.25;;;1.48;;
57635;SDS011;43465;50.728;4.160;2023-01-16T03:24:27;4.22;;;1.13;;
57635;SDS011;43465;50.728;4.160;2023-01-16T03:27:32;7.72;;;1.67;;
57635;SDS011;43465;50.728;4.160;2023-01-16T03:32:49;8.93;;;2.08;;
57635;SDS011;43465;50.728;4.160;2023-01-16T03:38:21;4.88;;;1.30;;
57635;SDS011;43465;50.728;4.160;2023-01-16T03:40:49;4.50;;;1.20;;
57635;SDS011;43465;50.728;4.160;2023-01-16T03:43:27;6.90;;;1.40;;
57635;SDS011;43465;50.728;4.160;2023-01-16T03:46:01;6.68;;;1.42;;
57635;SDS011;43465;50.728;4.160;2023-01-16T03:48:50;6.45;;;1.20;;
57635;SDS011;43465;50.728;4.160;2023-01-16T03:51:24;8.68;;;1.55;;
57635;SDS011;43465;50.728;4.160;2023-01-16T03:53:57;5.35;;;1.27;;
57635;SDS011;43465;50.728;4.160;2023-01-16T03:56:34;5.88;;;1.25;;
57635;SDS011;43465;50.728;4.160;2023-01-16T03:59:10;9.52;;;1.52;;
57635;SDS011;43465;50.728;4.160;2023-01-16T04:01:37;5.70;;;1.50;;
57635;SDS011;43465;50.728;4.160;2023-01-16T04:04:12;4.03;;;1.00;;
57635;SDS011;43465;50.728;4.160;2023-01-16T04:09:26;13.40;;;1.50;;
57635;SDS011;43465;50.728;4.160;2023-01-16T04:11:59;5.93;;;1.20;;
57635;SDS011;43465;50.728;4.160;2023-01-16T04:14:26;4.97;;;1.20;;
57635;SDS011;43465;50.728;4.160;2023-01-16T04:16:54;6.97;;;1.65;;
57635;SDS011;43465;50.728;4.160;2023-01-16T04:19:20;7.45;;;1.25;;
57635;SDS011;43465;50.728;4.160;2023-01-16T04:21:47;5.25;;;1.48;;
57635;SDS011;43465;50.728;4.160;2023-01-16T04:24:14;4.72;;;0.90;;
57635;SDS011;43465;50.728;4.160;2023-01-16T04:26:40;6.15;;;1.27;;
57635;SDS011;43465;50.728;4.160;2023-01-16T04:29:06;7.55;;;1.45;;
57635;SDS011;43465;50.728;4.160;2023-01-16T04:31:32;5.97;;;1.30;;
57635;SDS011;43465;50.728;4.160;2023-01-16T04:33:58;5.55;;;0.98;;
57635;SDS011;43465;50.728;4.160;2023-01-16T04:36:23;6.15;;;1.33;;
57635;SDS011;43465;50.728;4.160;2023-01-16T04:38:49;7.30;;;1.27;;
57635;SDS011;43465;50.728;4.160;2023-01-16T04:41:14;7.05;;;1.30;;
57635;SDS011;43465;50.728;4.160;2023-01-16T04:44:00;8.40;;;1.70;;
57635;SDS011;43465;50.728;4.160;2023-01-16T04:46:30;5.90;;;1.08;;
57635;SDS011;43465;50.728;4.160;2023-01-16T04:48:56;10.52;;;1.40;;
57635;SDS011;43465;50.728;4.160;2023-01-16T04:51:22;4.18;;;1.02;;
57635;SDS011;43465;50.728;4.160;2023-01-16T04:53:48;6.25;;;1.20;;
57635;SDS011;43465;50.728;4.160;2023-01-16T04:56:13;6.18;;;1.55;;
57635;SDS011;43465;50.728;4.160;2023-01-16T04:58:39;6.03;;;1.00;;
57635;SDS011;43465;50.728;4.160;2023-01-16T05:01:05;4.60;;;1.45;;
57635;SDS011;43465;50.728;4.160;2023-01-16T05:03:30;8.43;;;1.33;;
57635;SDS011;43465;50.728;4.160;2023-01-16T05:05:56;9.10;;;1.77;;
57635;SDS011;43465;50.728;4.160;2023-01-16T05:08:22;5.70;;;1.50;;
57635;SDS011;43465;50.728;4.160;2023-01-16T05:10:52;5.75;;;1.10;;
57635;SDS011;43465;50.728;4.160;2023-01-16T05:13:19;5.97;;;1.20;;
57635;SDS011;43465;50.728;4.160;2023-01-16T05:15:47;5.55;;;1.40;;
57635;SDS011;43465;50.728;4.160;2023-01-16T05:18:13;2.30;;;0.90;;
57635;SDS011;43465;50.728;4.160;2023-01-16T05:20:38;4.82;;;1.45;;
57635;SDS011;43465;50.728;4.160;2023-01-16T05:23:05;3.28;;;1.00;;
57635;SDS011;43465;50.728;4.160;2023-01-16T05:25:30;2.75;;;0.80;;
57635;SDS011;43465;50.728;4.160;2023-01-16T05:27:56;1.80;;;0.60;;
57635;SDS011;43465;50.728;4.160;2023-01-16T05:30:22;2.88;;;0.47;;
57635;SDS011;43465;50.728;4.160;2023-01-16T05:32:48;2.58;;;0.80;;
57635;SDS011;43465;50.728;4.160;2023-01-16T05:35:14;3.72;;;0.75;;
57635;SDS011;43465;50.728;4.160;2023-01-16T05:37:41;1.65;;;0.60;;
57635;SDS011;43465;50.728;4.160;2023-01-16T05:40:07;1.70;;;0.60;;
57635;SDS011;43465;50.728;4.160;2023-01-16T05:42:34;2.22;;;0.60;;
57635;SDS011;43465;50.728;4.160;2023-01-16T05:45:00;2.67;;;0.73;;
57635;SDS011;43465;50.728;4.160;2023-01-16T05:47:25;2.55;;;0.50;;
57635;SDS011;43465;50.728;4.160;2023-01-16T05:49:55;2.13;;;0.68;;
57635;SDS011;43465;50.728;4.160;2023-01-16T05:52:26;1.63;;;0.43;;
57635;SDS011;43465;50.728;4.160;2023-01-16T05:54:52;1.60;;;0.50;;
57635;SDS011;43465;50.728;4.160;2023-01-16T05:57:19;1.25;;;0.60;;
57635;SDS011;43465;50.728;4.160;2023-01-16T05:59:51;2.05;;;0.52;;
57635;SDS011;43465;50.728;4.160;2023-01-16T06:02:17;3.17;;;0.82;;
57635;SDS011;43465;50.728;4.160;2023-01-16T06:04:44;1.38;;;0.40;;
57635;SDS011;43465;50.728;4.160;2023-01-16T06:07:10;1.05;;;0.50;;
57635;SDS011;43465;50.728;4.160;2023-01-16T06:09:36;1.15;;;0.43;;
57635;SDS011;43465;50.728;4.160;2023-01-16T06:12:02;0.82;;;0.40;;
57635;SDS011;43465;50.728;4.160;2023-01-16T06:14:28;2.05;;;0.55;;
57635;SDS011;43465;50.728;4.160;2023-01-16T06:16:54;0.40;;;0.40;;
57635;SDS011;43465;50.728;4.160;2023-01-16T06:19:20;1.60;;;0.40;;
57635;SDS011;43465;50.728;4.160;2023-01-16T06:21:45;1.30;;;0.65;;
57635;SDS011;43465;50.728;4.160;2023-01-16T06:24:11;0.40;;;0.40;;
57635;SDS011;43465;50.728;4.160;2023-01-16T06:26:37;0.75;;;0.40;;
57635;SDS011;43465;50.728;4.160;2023-01-16T06:29:02;1.00;;;0.50;;
57635;SDS011;43465;50.728;4.160;2023-01-16T06:31:28;0.63;;;0.30;;
57635;SDS011;43465;50.728;4.160;2023-01-16T06:33:53;0.28;;;0.28;;
57635;SDS011;43465;50.728;4.160;2023-01-16T06:36:19;0.75;;;0.35;;
57635;SDS011;43465;50.728;4.160;2023-01-16T06:38:45;1.45;;;0.40;;
57635;SDS011;43465;50.728;4.160;2023-01-16T06:41:10;0.55;;;0.30;;
57635;SDS011;43465;50.728;4.160;2023-01-16T06:43:36;0.70;;;0.38;;
57635;SDS011;43465;50.728;4.160;2023-01-16T06:46:02;1.52;;;0.55;;
57635;SDS011;43465;50.728;4.160;2023-01-16T06:48:28;1.38;;;0.40;;
57635;SDS011;43465;50.728;4.160;2023-01-16T06:50:53;0.65;;;0.40;;
57635;SDS011;43465;50.728;4.160;2023-01-16T06:53:19;0.55;;;0.43;;
57635;SDS011;43465;50.728;4.160;2023-01-16T06:55:45;0.55;;;0.43;;
57635;SDS011;43465;50.728;4.160;2023-01-16T06:58:10;0.35;;;0.30;;
57635;SDS011;43465;50.728;4.160;2023-01-16T07:00:36;0.30;;;0.30;;
57635;SDS011;43465;50.728;4.160;2023-01-16T07:03:02;0.32;;;0.30;;
57635;SDS011;43465;50.728;4.160;2023-01-16T07:05:29;0.70;;;0.50;;
57635;SDS011;43465;50.728;4.160;2023-01-16T07:07:55;0.50;;;0.40;;
57635;SDS011;43465;50.728;4.160;2023-01-16T07:10:21;0.57;;;0.40;;
57635;SDS011;43465;50.728;4.160;2023-01-16T07:12:48;0.30;;;0.30;;
57635;SDS011;43465;50.728;4.160;2023-01-16T07:15:15;0.30;;;0.30;;
57635;SDS011;43465;50.728;4.160;2023-01-16T07:18:00;0.40;;;0.40;;
57635;SDS011;43465;50.728;4.160;2023-01-16T07:20:46;1.40;;;0.52;;
57635;SDS011;43465;50.728;4.160;2023-01-16T07:23:36;1.38;;;0.38;;
57635;SDS011;43465;50.728;4.160;2023-01-16T07:26:05;1.25;;;0.30;;
57635;SDS011;43465;50.728;4.160;2023-01-16T07:28:32;0.30;;;0.30;;
57635;SDS011;43465;50.728;4.160;2023-01-16T07:30:59;1.65;;;0.40;;
57635;SDS011;43465;50.728;4.160;2023-01-16T07:33:28;0.43;;;0.40;;
57635;SDS011;43465;50.728;4.160;2023-01-16T07:35:54;0.30;;;0.30;;
57635;SDS011;43465;50.728;4.160;2023-01-16T07:38:20;0.82;;;0.50;;
57635;SDS011;43465;50.728;4.160;2023-01-16T07:40:45;0.52;;;0.40;;
57635;SDS011;43465;50.728;4.160;2023-01-16T07:43:11;0.30;;;0.30;;
57635;SDS011;43465;50.728;4.160;2023-01-16T07:45:37;0.43;;;0.43;;
57635;SDS011;43465;50.728;4.160;2023-01-16T07:48:02;1.90;;;0.65;;
57635;SDS011;43465;50.728;4.160;2023-01-16T07:50:28;0.52;;;0.50;;
57635;SDS011;43465;50.728;4.160;2023-01-16T07:52:54;0.70;;;0.60;;
57635;SDS011;43465;50.728;4.160;2023-01-16T07:55:20;2.05;;;0.70;;
57635;SDS011;43465;50.728;4.160;2023-01-16T07:57:46;0.80;;;0.60;;
57635;SDS011;43465;50.728;4.160;2023-01-16T08:00:11;1.52;;;0.82;;
57635;SDS011;43465;50.728;4.160;2023-01-16T08:02:38;2.55;;;0.90;;
57635;SDS011;43465;50.728;4.160;2023-01-16T08:05:04;1.98;;;0.70;;
57635;SDS011;43465;50.728;4.160;2023-01-16T08:07:30;0.75;;;0.63;;
57635;SDS011;43465;50.728;4.160;2023-01-16T08:09:56;1.13;;;0.80;;
57635;SDS011;43465;50.728;4.160;2023-01-16T08:12:22;0.93;;;0.80;;
57635;SDS011;43465;50.728;4.160;2023-01-16T08:14:47;1.77;;;0.90;;
57635;SDS011;43465;50.728;4.160;2023-01-16T08:17:13;1.27;;;0.70;;
57635;SDS011;43465;50.728;4.160;2023-01-16T08:19:39;1.15;;;0.50;;
57635;SDS011;43465;50.728;4.160;2023-01-16T08:22:04;2.53;;;0.60;;
57635;SDS011;43465;50.728;4.160;2023-01-16T08:24:30;2.45;;;0.50;;
57635;SDS011;43465;50.728;4.160;2023-01-16T08:26:56;2.45;;;0.50;;
57635;SDS011;43465;50.728;4.160;2023-01-16T08:29:22;1.40;;;0.50;;
57635;SDS011;43465;50.728;4.160;2023-01-16T08:31:48;0.65;;;0.50;;
57635;SDS011;43465;50.728;4.160;2023-01-16T08:34:14;2.15;;;0.40;;
57635;SDS011;43465;50.728;4.160;2023-01-16T08:36:40;2.03;;;0.55;;
57635;SDS011;43465;50.728;4.160;2023-01-16T08:39:06;1.13;;;0.60;;
57635;SDS011;43465;50.728;4.160;2023-01-16T08:41:33;0.90;;;0.50;;
57635;SDS011;43465;50.728;4.160;2023-01-16T08:44:17;2.97;;;0.60;;
57635;SDS011;43465;50.728;4.160;2023-01-16T08:47:02;1.33;;;0.60;;
57635;SDS011;43465;50.728;4.160;2023-01-16T08:50:02;1.02;;;0.45;;
57635;SDS011;43465;50.728;4.160;2023-01-16T08:52:46;0.77;;;0.50;;
57635;SDS011;43465;50.728;4.160;2023-01-16T08:55:12;0.52;;;0.43;;
57635;SDS011;43465;50.728;4.160;2023-01-16T08:57:38;1.75;;;0.50;;
57635;SDS011;43465;50.728;4.160;2023-01-16T09:00:04;0.40;;;0.40;;
57635;SDS011;43465;50.728;4.160;2023-01-16T09:02:31;1.13;;;0.40;;
57635;SDS011;43465;50.728;4.160;2023-01-16T09:04:59;0.88;;;0.50;;
57635;SDS011;43465;50.728;4.160;2023-01-16T09:07:25;1.02;;;0.50;;
57635;SDS011;43465;50.728;4.160;2023-01-16T09:09:50;1.73;;;0.40;;
57635;SDS011;43465;50.728;4.160;2023-01-16T09:12:16;1.35;;;0.55;;
57635;SDS011;43465;50.728;4.160;2023-01-16T09:15:00;2.45;;;0.60;;
57635;SDS011;43465;50.728;4.160;2023-01-16T09:17:27;0.82;;;0.57;;
57635;SDS011;43465;50.728;4.160;2023-01-16T09:19:53;0.98;;;0.47;;
57635;SDS011;43465;50.728;4.160;2023-01-16T09:22:18;2.53;;;0.60;;
57635;SDS011;43465;50.728;4.160;2023-01-16T09:24:44;0.77;;;0.57;;
57635;SDS011;43465;50.728;4.160;2023-01-16T09:27:10;1.73;;;0.70;;
57635;SDS011;43465;50.728;4.160;2023-01-16T09:29:40;2.25;;;0.60;;
57635;SDS011;43465;50.728;4.160;2023-01-16T09:32:06;2.17;;;0.60;;
57635;SDS011;43465;50.728;4.160;2023-01-16T09:34:37;0.88;;;0.50;;
57635;SDS011;43465;50.728;4.160;2023-01-16T09:37:04;1.15;;;0.65;;
57635;SDS011;43465;50.728;4.160;2023-01-16T09:39:31;1.92;;;0.60;;
57635;SDS011;43465;50.728;4.160;2023-01-16T09:42:05;2.55;;;0.60;;
57635;SDS011;43465;50.728;4.160;2023-01-16T09:45:02;1.27;;;0.80;;
57635;SDS011;43465;50.728;4.160;2023-01-16T09:47:34;1.05;;;0.60;;
57635;SDS011;43465;50.728;4.160;2023-01-16T09:50:04;2.50;;;0.50;;
57635;SDS011;43465;50.728;4.160;2023-01-16T09:52:37;1.45;;;0.55;;
57635;SDS011;43465;50.728;4.160;2023-01-16T09:55:32;1.25;;;0.70;;
57635;SDS011;43465;50.728;4.160;2023-01-16T09:58:21;0.60;;;0.57;;
57635;SDS011;43465;50.728;4.160;2023-01-16T10:03:40;0.70;;;0.50;;
57635;SDS011;43465;50.728;4.160;2023-01-16T10:06:12;0.63;;;0.60;;
57635;SDS011;43465;50.728;4.160;2023-01-16T10:11:57;1.40;;;0.47;;
57635;SDS011;43465;50.728;4.160;2023-01-16T10:16:54;0.60;;;0.50;;
57635;SDS011;43465;50.728;4.160;2023-01-16T10:27:36;2.17;;;0.75;;
57635;SDS011;43465;50.728;4.160;2023-01-16T10:30:31;0.75;;;0.60;;
57635;SDS011;43465;50.728;4.160;2023-01-16T10:33:08;1.63;;;0.70;;
57635;SDS011;43465;50.728;4.160;2023-01-16T10:35:39;0.68;;;0.68;;
57635;SDS011;43465;50.728;4.160;2023-01-16T10:38:17;0.65;;;0.60;;
57635;SDS011;43465;50.728;4.160;2023-01-16T10:41:19;0.52;;;0.52;;
57635;SDS011;43465;50.728;4.160;2023-01-16T10:47:30;0.60;;;0.55;;
57635;SDS011;43465;50.728;4.160;2023-01-16T10:50:17;1.15;;;0.50;;
57635;SDS011;43465;50.728;4.160;2023-01-16T10:52:44;0.57;;;0.57;;
57635;SDS011;43465;50.728;4.160;2023-01-16T10:55:11;1.38;;;0.40;;
57635;SDS011;43465;50.728;4.160;2023-01-16T10:57:41;0.43;;;0.40;;
57635;SDS011;43465;50.728;4.160;2023-01-16T11:00:13;1.25;;;0.70;;
57635;SDS011;43465;50.728;4.160;2023-01-16T11:02:46;1.33;;;0.68;;
57635;SDS011;43465;50.728;4.160;2023-01-16T11:07:54;1.60;;;0.60;;
57635;SDS011;43465;50.728;4.160;2023-01-16T11:10:21;0.60;;;0.47;;
57635;SDS011;43465;50.728;4.160;2023-01-16T11:12:47;0.65;;;0.52;;
57635;SDS011;43465;50.728;4.160;2023-01-16T11:15:33;0.73;;;0.70;;
57635;SDS011;43465;50.728;4.160;2023-01-16T11:18:21;0.88;;;0.60;;
57635;SDS011;43465;50.728;4.160;2023-01-16T11:20:56;0.63;;;0.40;;
57635;SDS011;43465;50.728;4.160;2023-01-16T11:23:24;1.73;;;0.60;;
57635;SDS011;43465;50.728;4.160;2023-01-16T11:25:52;2.42;;;0.80;;
57635;SDS011;43465;50.728;4.160;2023-01-16T11:28:22;0.60;;;0.60;;
57635;SDS011;43465;50.728;4.160;2023-01-16T11:30:52;3.15;;;0.80;;
57635;SDS011;43465;50.728;4.160;2023-01-16T11:33:42;1.15;;;0.90;;
57635;SDS011;43465;50.728;4.160;2023-01-16T11:36:10;0.50;;;0.50;;
57635;SDS011;43465;50.728;4.160;2023-01-16T11:38:38;0.73;;;0.65;;
57635;SDS011;43465;50.728;4.160;2023-01-16T11:43:35;2.25;;;0.80;;
57635;SDS011;43465;50.728;4.160;2023-01-16T11:46:38;0.93;;;0.70;;
57635;SDS011;43465;50.728;4.160;2023-01-16T11:49:16;1.17;;;0.77;;
57635;SDS011;43465;50.728;4.160;2023-01-16T11:51:44;1.13;;;0.70;;
57635;SDS011;43465;50.728;4.160;2023-01-16T11:54:16;0.90;;;0.70;;
57635;SDS011;43465;50.728;4.160;2023-01-16T11:56:52;0.55;;;0.50;;
57635;SDS011;43465;50.728;4.160;2023-01-16T12:13:59;0.47;;;0.40;;
57635;SDS011;43465;50.728;4.160;2023-01-16T12:16:49;0.47;;;0.47;;
57635;SDS011;43465;50.728;4.160;2023-01-16T12:24:45;0.52;;;0.52;;
57635;SDS011;43465;50.728;4.160;2023-01-16T12:30:10;0.50;;;0.50;;
57635;SDS011;43465;50.728;4.160;2023-01-16T12:35:26;1.40;;;0.60;;
57635;SDS011;43465;50.728;4.160;2023-01-16T12:38:15;0.50;;;0.45;;
57635;SDS011;43465;50.728;4.160;2023-01-16T12:43:50;1.30;;;1.00;;
57635;SDS011;43465;50.728;4.160;2023-01-16T12:55:20;1.77;;;1.42;;
57635;SDS011;43465;50.728;4.160;2023-01-16T13:00:17;1.98;;;1.35;;
57635;SDS011;43465;50.728;4.160;2023-01-16T13:05:34;2.08;;;1.20;;
57635;SDS011;43465;50.728;4.160;2023-01-16T13:08:04;2.33;;;1.38;;
57635;SDS011;43465;50.728;4.160;2023-01-16T13:10:37;2.42;;;1.58;;
57635;SDS011;43465;50.728;4.160;2023-01-16T13:13:28;2.00;;;1.58;;
57635;SDS011;43465;50.728;4.160;2023-01-16T13:18:46;1.63;;;1.20;;
57635;SDS011;43465;50.728;4.160;2023-01-16T13:21:19;0.85;;;0.70;;
57635;SDS011;43465;50.728;4.160;2023-01-16T13:24:05;0.73;;;0.60;;
57635;SDS011;43465;50.728;4.160;2023-01-16T13:26:39;1.23;;;0.90;;
57635;SDS011;43465;50.728;4.160;2023-01-16T13:29:11;0.52;;;0.50;;
57635;SDS011;43465;50.728;4.160;2023-01-16T13:31:48;1.38;;;0.60;;
57635;SDS011;43465;50.728;4.160;2023-01-16T13:34:30;1.77;;;0.80;;
57635;SDS011;43465;50.728;4.160;2023-01-16T13:39:56;1.77;;;0.80;;
57635;SDS011;43465;50.728;4.160;2023-01-16T13:42:38;2.97;;;0.80;;
57635;SDS011;43465;50.728;4.160;2023-01-16T13:45:23;3.40;;;0.95;;
57635;SDS011;43465;50.728;4.160;2023-01-16T13:48:12;1.33;;;0.85;;
57635;SDS011;43465;50.728;4.160;2023-01-16T13:50:42;2.72;;;1.48;;
57635;SDS011;43465;50.728;4.160;2023-01-16T13:53:13;1.52;;;1.10;;
57635;SDS011;43465;50.728;4.160;2023-01-16T13:55:40;1.30;;;1.20;;
57635;SDS011;43465;50.728;4.160;2023-01-16T14:00:58;2.53;;;1.70;;
57635;SDS011;43465;50.728;4.160;2023-01-16T14:03:26;1.27;;;0.98;;
57635;SDS011;43465;50.728;4.160;2023-01-16T14:08:45;0.80;;;0.80;;
57635;SDS011;43465;50.728;4.160;2023-01-16T14:17:13;2.17;;;0.80;;
57635;SDS011;43465;50.728;4.160;2023-01-16T14:22:18;0.60;;;0.60;;
57635;SDS011;43465;50.728;4.160;2023-01-16T14:24:46;0.63;;;0.63;;
57635;SDS011;43465;50.728;4.160;2023-01-16T14:27:18;1.13;;;0.70;;
57635;SDS011;43465;50.728;4.160;2023-01-16T14:29:51;0.77;;;0.75;;
57635;SDS011;43465;50.728;4.160;2023-01-16T14:32:25;1.15;;;0.80;;
57635;SDS011;43465;50.728;4.160;2023-01-16T14:34:54;1.35;;;0.85;;
57635;SDS011;43465;50.728;4.160;2023-01-16T14:39:56;0.98;;;0.98;;
57635;SDS011;43465;50.728;4.160;2023-01-16T14:50:59;1.15;;;1.00;;
57635;SDS011;43465;50.728;4.160;2023-01-16T14:54:36;1.30;;;1.10;;
57635;SDS011;43465;50.728;4.160;2023-01-16T14:57:06;1.40;;;0.77;;
57635;SDS011;43465;50.728;4.160;2023-01-16T14:59:59;1.95;;;0.80;;
57635;SDS011;43465;50.728;4.160;2023-01-16T15:05:21;1.27;;;0.63;;
57635;SDS011;43465;50.728;4.160;2023-01-16T15:08:14;2.92;;;0.68;;
57635;SDS011;43465;50.728;4.160;2023-01-16T15:11:06;1.23;;;0.40;;
57635;SDS011;43465;50.728;4.160;2023-01-16T15:14:10;1.88;;;1.00;;
57635;SDS011;43465;50.728;4.160;2023-01-16T15:20:26;0.73;;;0.73;;
57635;SDS011;43465;50.728;4.160;2023-01-16T15:23:30;1.63;;;0.75;;
57635;SDS011;43465;50.728;4.160;2023-01-16T15:31:34;3.10;;;1.00;;
57635;SDS011;43465;50.728;4.160;2023-01-16T15:36:42;5.18;;;2.63;;
57635;SDS011;43465;50.728;4.160;2023-01-16T15:41:52;7.22;;;4.05;;
57635;SDS011;43465;50.728;4.160;2023-01-16T15:44:39;5.13;;;1.88;;
57635;SDS011;43465;50.728;4.160;2023-01-16T15:52:40;2.85;;;1.65;;
57635;SDS011;43465;50.728;4.160;2023-01-16T15:57:39;14.05;;;5.65;;
57635;SDS011;43465;50.728;4.160;2023-01-16T16:02:58;3.65;;;2.65;;
57635;SDS011;43465;50.728;4.160;2023-01-16T16:05:46;4.75;;;2.08;;
57635;SDS011;43465;50.728;4.160;2023-01-16T16:08:20;3.60;;;2.13;;
57635;SDS011;43465;50.728;4.160;2023-01-16T16:10:49;5.50;;;3.00;;
57635;SDS011;43465;50.728;4.160;2023-01-16T16:13:35;4.38;;;1.67;;
57635;SDS011;43465;50.728;4.160;2023-01-16T16:16:03;3.95;;;2.00;;
57635;SDS011;43465;50.728;4.160;2023-01-16T16:18:58;4.15;;;2.70;;
57635;SDS011;43465;50.728;4.160;2023-01-16T16:21:26;9.10;;;4.88;;
57635;SDS011;43465;50.728;4.160;2023-01-16T16:24:05;15.88;;;8.32;;
57635;SDS011;43465;50.728;4.160;2023-01-16T16:26:37;36.88;;;21.33;;
57635;SDS011;43465;50.728;4.160;2023-01-16T16:29:06;27.52;;;15.30;;
57635;SDS011;43465;50.728;4.160;2023-01-16T16:31:41;29.48;;;16.42;;
57635;SDS011;43465;50.728;4.160;2023-01-16T16:34:16;47.38;;;27.75;;
57635;SDS011;43465;50.728;4.160;2023-01-16T16:36:48;32.40;;;21.10;;
57635;SDS011;43465;50.728;4.160;2023-01-16T16:41:59;24.33;;;15.40;;
57635;SDS011;43465;50.728;4.160;2023-01-16T16:44:45;22.70;;;16.42;;
57635;SDS011;43465;50.728;4.160;2023-01-16T16:47:29;19.00;;;13.48;;
57635;SDS011;43465;50.728;4.160;2023-01-16T16:49:56;23.40;;;15.40;;
57635;SDS011;43465;50.728;4.160;2023-01-16T16:52:35;30.27;;;18.60;;
57635;SDS011;43465;50.728;4.160;2023-01-16T16:55:11;11.00;;;6.10;;
57635;SDS011;43465;50.728;4.160;2023-01-16T16:57:55;7.95;;;3.85;;
57635;SDS011;43465;50.728;4.160;2023-01-16T17:00:25;10.00;;;5.13;;
57635;SDS011;43465;50.728;4.160;2023-01-16T17:02:56;6.38;;;2.72;;
57635;SDS011;43465;50.728;4.160;2023-01-16T17:05:27;6.90;;;3.88;;
57635;SDS011;43465;50.728;4.160;2023-01-16T17:07:53;5.70;;;3.28;;
57635;SDS011;43465;50.728;4.160;2023-01-16T17:10:19;9.80;;;8.10;;
57635;SDS011;43465;50.728;4.160;2023-01-16T17:12:46;16.25;;;11.02;;
57635;SDS011;43465;50.728;4.160;2023-01-16T17:15:11;9.45;;;5.70;;
57635;SDS011;43465;50.728;4.160;2023-01-16T17:17:39;4.93;;;2.53;;
57635;SDS011;43465;50.728;4.160;2023-01-16T17:20:16;8.55;;;4.35;;
57635;SDS011;43465;50.728;4.160;2023-01-16T17:22:43;5.25;;;3.15;;
57635;SDS011;43465;50.728;4.160;2023-01-16T17:25:13;4.15;;;2.13;;
57635;SDS011;43465;50.728;4.160;2023-01-16T17:27:51;4.32;;;1.55;;
57635;SDS011;43465;50.728;4.160;2023-01-16T17:30:19;2.13;;;1.50;;
57635;SDS011;43465;50.728;4.160;2023-01-16T17:32:49;3.25;;;2.10;;
57635;SDS011;43465;50.728;4.160;2023-01-16T17:35:22;1.63;;;1.52;;
57635;SDS011;43465;50.728;4.160;2023-01-16T17:37:48;4.20;;;2.60;;
57635;SDS011;43465;50.728;4.160;2023-01-16T17:40:13;4.45;;;3.00;;
57635;SDS011;43465;50.728;4.160;2023-01-16T17:42:39;5.13;;;2.72;;
57635;SDS011;43465;50.728;4.160;2023-01-16T17:45:30;6.55;;;2.53;;
57635;SDS011;43465;50.728;4.160;2023-01-16T17:48:23;6.13;;;3.33;;
57635;SDS011;43465;50.728;4.160;2023-01-16T17:50:51;4.97;;;2.83;;
57635;SDS011;43465;50.728;4.160;2023-01-16T17:53:18;8.85;;;3.78;;
57635;SDS011;43465;50.728;4.160;2023-01-16T17:55:45;9.27;;;4.57;;
57635;SDS011;43465;50.728;4.160;2023-01-16T18:01:04;14.60;;;5.78;;
57635;SDS011;43465;50.728;4.160;2023-01-16T18:03:31;14.05;;;5.85;;